sensor_id;sensor_type;location;lat;lon;timestamp;temperature;humidity
57390;DHT22;43217;52.694;6.214;2023-11-18T00:01:34;3.40;99.90
57390;DHT22;43217;52.694;6.214;2023-11-18T00:04:00;3.30;99.90
57390;DHT22;43217;52.694;6.214;2023-11-18T00:06:26;3.30;99.90
57390;DHT22;43217;52.694;6.214;2023-11-18T00:08:52;3.30;99.90
57390;DHT22;43217;52.694;6.214;2023-11-18T00:11:18;3.30;99.90
57390;DHT22;43217;52.694;6.214;2023-11-18T00:13:44;3.30;99.90
57390;DHT22;43217;52.694;6.214;2023-11-18T00:16:10;3.30;99.90
57390;DHT22;43217;52.694;6.214;2023-11-18T00:18:41;3.30;99.90
57390;DHT22;43217;52.694;6.214;2023-11-18T00:21:07;3.20;99.90
57390;DHT22;43217;52.694;6.214;2023-11-18T00:23:33;3.20;99.90
57390;DHT22;43217;52.694;6.214;2023-11-18T00:25:59;3.20;99.90
57390;DHT22;43217;52.694;6.214;2023-11-18T00:28:25;3.20;99.90
57390;DHT22;43217;52.694;6.214;2023-11-18T00:30:51;3.20;99.90
57390;DHT22;43217;52.694;6.214;2023-11-18T00:33:16;3.10;99.90
57390;DHT22;43217;52.694;6.214;2023-11-18T00:35:42;3.10;99.90
57390;DHT22;43217;52.694;6.214;2023-11-18T00:38:08;3.10;99.90
57390;DHT22;43217;52.694;6.214;2023-11-18T00:40:33;3.10;99.90
57390;DHT22;43217;52.694;6.214;2023-11-18T00:43:00;3.10;99.90
57390;DHT22;43217;52.694;6.214;2023-11-18T00:45:26;3.10;99.90
57390;DHT22;43217;52.694;6.214;2023-11-18T00:47:54;3.10;99.90
57390;DHT22;43217;52.694;6.214;2023-11-18T00:50:20;3.10;99.90
57390;DHT22;43217;52.694;6.214;2023-11-18T00:52:45;3.10;99.90
57390;DHT22;43217;52.694;6.214;2023-11-18T00:55:15;3.10;99.90
57390;DHT22;43217;52.694;6.214;2023-11-18T00:57:44;3.10;99.90
57390;DHT22;43217;52.694;6.214;2023-11-18T01:00:14;3.10;99.90
57390;DHT22;43217;52.694;6.214;2023-11-18T01:02:42;3.10;99.90
57390;DHT22;43217;52.694;6.214;2023-11-18T01:05:09;3.20;99.90
57390;DHT22;43217;52.694;6.214;2023-11-18T01:07:37;3.20;99.90
57390;DHT22;43217;52.694;6.214;2023-11-18T01:10:03;3.20;99.90
57390;DHT22;43217;52.694;6.214;2023-11-18T01:12:29;3.20;99.90
57390;DHT22;43217;52.694;6.214;2023-11-18T01:14:55;3.20;99.90
57390;DHT22;43217;52.694;6.214;2023-11-18T01:17:20;3.20;99.90
57390;DHT22;43217;52.694;6.214;2023-11-18T01:19:47;3.20;99.90
57390;DHT22;43217;52.694;6.214;2023-11-18T01:22:13;3.20;99.90
57390;DHT22;43217;52.694;6.214;2023-11-18T01:24:39;3.10;99.90
57390;DHT22;43217;52.694;6.214;2023-11-18T01:27:04;3.20;99.90
57390;DHT22;43217;52.694;6.214;2023-11-18T01:29:30;3.20;99.90
57390;DHT22;43217;52.694;6.214;2023-11-18T01:31:56;3.20;99.90
57390;DHT22;43217;52.694;6.214;2023-11-18T01:34:22;3.30;99.90
57390;DHT22;43217;52.694;6.214;2023-11-18T01:36:49;3.30;99.90
57390;DHT22;43217;52.694;6.214;2023-11-18T01:39:15;3.30;99.90
57390;DHT22;43217;52.694;6.214;2023-11-18T01:41:43;3.40;99.90
57390;DHT22;43217;52.694;6.214;2023-11-18T01:44:09;3.40;99.90
57390;DHT22;43217;52.694;6.214;2023-11-18T01:46:35;3.40;99.90
57390;DHT22;43217;52.694;6.214;2023-11-18T01:49:02;3.40;99.90
57390;DHT22;43217;52.694;6.214;2023-11-18T01:51:29;3.50;99.90
57390;DHT22;43217;52.694;6.214;2023-11-18T01:53:55;3.40;99.90
57390;DHT22;43217;52.694;6.214;2023-11-18T01:56:22;3.40;99.90
57390;DHT22;43217;52.694;6.214;2023-11-18T01:58:51;3.50;99.90
57390;DHT22;43217;52.694;6.214;2023-11-18T02:01:17;3.50;99.90
57390;DHT22;43217;52.694;6.214;2023-11-18T02:03:43;3.50;99.90
57390;DHT22;43217;52.694;6.214;2023-11-18T02:06:09;3.50;99.90
57390;DHT22;43217;52.694;6.214;2023-11-18T02:08:37;3.50;99.90
57390;DHT22;43217;52.694;6.214;2023-11-18T02:13:39;3.60;99.90
57390;DHT22;43217;52.694;6.214;2023-11-18T02:16:08;3.50;99.90
57390;DHT22;43217;52.694;6.214;2023-11-18T02:18:35;3.50;99.90
57390;DHT22;43217;52.694;6.214;2023-11-18T02:21:05;3.60;99.90
57390;DHT22;43217;52.694;6.214;2023-11-18T02:23:33;3.60;99.90
57390;DHT22;43217;52.694;6.214;2023-11-18T02:25:59;3.60;99.90
57390;DHT22;43217;52.694;6.214;2023-11-18T02:28:26;3.60;99.90
57390;DHT22;43217;52.694;6.214;2023-11-18T02:30:58;3.60;99.90
57390;DHT22;43217;52.694;6.214;2023-11-18T02:33:35;3.60;99.90
57390;DHT22;43217;52.694;6.214;2023-11-18T02:36:31;3.60;99.90
57390;DHT22;43217;52.694;6.214;2023-11-18T02:39:04;3.70;99.90
57390;DHT22;43217;52.694;6.214;2023-11-18T02:41:37;3.60;99.90
57390;DHT22;43217;52.694;6.214;2023-11-18T02:44:04;3.70;99.90
57390;DHT22;43217;52.694;6.214;2023-11-18T02:46:36;3.70;99.90
57390;DHT22;43217;52.694;6.214;2023-11-18T02:49:02;3.60;99.90
57390;DHT22;43217;52.694;6.214;2023-11-18T02:51:28;3.70;99.90
57390;DHT22;43217;52.694;6.214;2023-11-18T02:53:57;3.70;99.90
57390;DHT22;43217;52.694;6.214;2023-11-18T02:56:22;3.70;99.90
57390;DHT22;43217;52.694;6.214;2023-11-18T02:58:48;3.70;99.90
57390;DHT22;43217;52.694;6.214;2023-11-18T03:01:14;3.70;99.90
57390;DHT22;43217;52.694;6.214;2023-11-18T03:03:39;3.70;99.90
57390;DHT22;43217;52.694;6.214;2023-11-18T03:06:05;3.70;99.90
57390;DHT22;43217;52.694;6.214;2023-11-18T03:08:31;3.70;99.90
57390;DHT22;43217;52.694;6.214;2023-11-18T03:10:57;3.70;99.90
57390;DHT22;43217;52.694;6.214;2023-11-18T03:13:24;3.70;99.90
57390;DHT22;43217;52.694;6.214;2023-11-18T03:15:50;3.70;99.90
57390;DHT22;43217;52.694;6.214;2023-11-18T03:18:17;3.70;99.90
57390;DHT22;43217;52.694;6.214;2023-11-18T03:20:42;3.70;99.90
57390;DHT22;43217;52.694;6.214;2023-11-18T03:23:08;3.70;99.90
57390;DHT22;43217;52.694;6.214;2023-11-18T03:25:34;3.70;99.90
57390;DHT22;43217;52.694;6.214;2023-11-18T03:28:00;3.70;99.90
57390;DHT22;43217;52.694;6.214;2023-11-18T03:30:25;3.80;99.90
57390;DHT22;43217;52.694;6.214;2023-11-18T03:32:51;3.80;99.90
57390;DHT22;43217;52.694;6.214;2023-11-18T03:35:17;3.80;99.90
57390;DHT22;43217;52.694;6.214;2023-11-18T03:37:42;3.70;99.90
57390;DHT22;43217;52.694;6.214;2023-11-18T03:40:10;3.70;99.90
57390;DHT22;43217;52.694;6.214;2023-11-18T03:42:37;3.70;99.90
57390;DHT22;43217;52.694;6.214;2023-11-18T03:45:03;3.70;99.90
57390;DHT22;43217;52.694;6.214;2023-11-18T03:47:29;3.60;99.90
57390;DHT22;43217;52.694;6.214;2023-11-18T03:49:55;3.60;99.90
57390;DHT22;43217;52.694;6.214;2023-11-18T03:52:21;3.60;99.90
57390;DHT22;43217;52.694;6.214;2023-11-18T03:54:47;3.60;99.90
57390;DHT22;43217;52.694;6.214;2023-11-18T03:57:12;3.60;99.90
57390;DHT22;43217;52.694;6.214;2023-11-18T03:59:41;3.60;99.90
57390;DHT22;43217;52.694;6.214;2023-11-18T04:02:07;3.60;99.90
57390;DHT22;43217;52.694;6.214;2023-11-18T04:04:33;3.60;99.90
57390;DHT22;43217;52.694;6.214;2023-11-18T04:06:58;3.60;99.90
57390;DHT22;43217;52.694;6.214;2023-11-18T04:09:27;3.60;99.90
57390;DHT22;43217;52.694;6.214;2023-11-18T04:11:52;3.60;99.90
57390;DHT22;43217;52.694;6.214;2023-11-18T04:14:18;3.60;99.90
57390;DHT22;43217;52.694;6.214;2023-11-18T04:16:48;3.70;99.90
57390;DHT22;43217;52.694;6.214;2023-11-18T04:19:14;3.70;99.90
57390;DHT22;43217;52.694;6.214;2023-11-18T04:21:40;3.70;99.90
57390;DHT22;43217;52.694;6.214;2023-11-18T04:24:06;3.70;99.90
57390;DHT22;43217;52.694;6.214;2023-11-18T04:26:32;3.70;99.90
57390;DHT22;43217;52.694;6.214;2023-11-18T04:28:58;3.80;99.90
57390;DHT22;43217;52.694;6.214;2023-11-18T04:31:27;3.80;99.90
57390;DHT22;43217;52.694;6.214;2023-11-18T04:33:52;3.90;99.90
57390;DHT22;43217;52.694;6.214;2023-11-18T04:36:21;3.90;99.90
57390;DHT22;43217;52.694;6.214;2023-11-18T04:38:47;3.90;99.90
57390;DHT22;43217;52.694;6.214;2023-11-18T04:41:14;4.00;99.90
57390;DHT22;43217;52.694;6.214;2023-11-18T04:43:40;4.00;99.90
57390;DHT22;43217;52.694;6.214;2023-11-18T04:46:07;4.00;99.90
57390;DHT22;43217;52.694;6.214;2023-11-18T04:48:34;4.10;99.90
57390;DHT22;43217;52.694;6.214;2023-11-18T04:51:00;4.10;99.90
57390;DHT22;43217;52.694;6.214;2023-11-18T04:53:26;4.10;99.90
57390;DHT22;43217;52.694;6.214;2023-11-18T04:55:52;4.10;99.90
57390;DHT22;43217;52.694;6.214;2023-11-18T04:58:18;4.20;99.90
57390;DHT22;43217;52.694;6.214;2023-11-18T05:00:44;4.20;99.90
57390;DHT22;43217;52.694;6.214;2023-11-18T05:03:10;4.20;99.90
57390;DHT22;43217;52.694;6.214;2023-11-18T05:05:39;4.20;99.90
57390;DHT22;43217;52.694;6.214;2023-11-18T05:08:06;4.30;99.90
57390;DHT22;43217;52.694;6.214;2023-11-18T05:10:33;4.30;99.90
57390;DHT22;43217;52.694;6.214;2023-11-18T05:12:59;4.30;99.90
57390;DHT22;43217;52.694;6.214;2023-11-18T05:15:24;4.30;99.90
57390;DHT22;43217;52.694;6.214;2023-11-18T05:17:54;4.30;99.90
57390;DHT22;43217;52.694;6.214;2023-11-18T05:20:20;4.40;99.90
57390;DHT22;43217;52.694;6.214;2023-11-18T05:22:46;4.40;99.90
57390;DHT22;43217;52.694;6.214;2023-11-18T05:25:12;4.40;99.90
57390;DHT22;43217;52.694;6.214;2023-11-18T05:27:39;4.50;99.90
57390;DHT22;43217;52.694;6.214;2023-11-18T05:30:09;4.50;99.90
57390;DHT22;43217;52.694;6.214;2023-11-18T05:32:35;4.50;99.90
57390;DHT22;43217;52.694;6.214;2023-11-18T05:35:01;4.50;99.90
57390;DHT22;43217;52.694;6.214;2023-11-18T05:37:27;4.50;99.90
57390;DHT22;43217;52.694;6.214;2023-11-18T05:39:54;4.60;99.90
57390;DHT22;43217;52.694;6.214;2023-11-18T05:42:31;4.60;99.90
57390;DHT22;43217;52.694;6.214;2023-11-18T05:44:57;4.60;99.90
57390;DHT22;43217;52.694;6.214;2023-11-18T05:47:26;4.60;99.90
57390;DHT22;43217;52.694;6.214;2023-11-18T05:49:53;4.70;99.90
57390;DHT22;43217;52.694;6.214;2023-11-18T05:52:19;4.70;99.90
57390;DHT22;43217;52.694;6.214;2023-11-18T05:54:46;4.70;99.90
57390;DHT22;43217;52.694;6.214;2023-11-18T05:57:15;4.70;99.90
57390;DHT22;43217;52.694;6.214;2023-11-18T05:59:42;4.70;99.90
57390;DHT22;43217;52.694;6.214;2023-11-18T06:02:08;4.70;99.90
57390;DHT22;43217;52.694;6.214;2023-11-18T06:04:34;4.80;99.90
57390;DHT22;43217;52.694;6.214;2023-11-18T06:07:00;4.80;99.90
57390;DHT22;43217;52.694;6.214;2023-11-18T06:09:28;4.80;99.90
57390;DHT22;43217;52.694;6.214;2023-11-18T06:11:54;4.80;99.90
57390;DHT22;43217;52.694;6.214;2023-11-18T06:14:20;4.80;99.90
57390;DHT22;43217;52.694;6.214;2023-11-18T06:16:47;4.80;99.90
57390;DHT22;43217;52.694;6.214;2023-11-18T06:19:13;4.80;99.90
57390;DHT22;43217;52.694;6.214;2023-11-18T06:21:40;4.80;99.90
57390;DHT22;43217;52.694;6.214;2023-11-18T06:24:06;4.80;99.90
57390;DHT22;43217;52.694;6.214;2023-11-18T06:26:32;4.80;99.90
57390;DHT22;43217;52.694;6.214;2023-11-18T06:29:01;4.80;99.90
57390;DHT22;43217;52.694;6.214;2023-11-18T06:31:27;4.80;99.90
57390;DHT22;43217;52.694;6.214;2023-11-18T06:33:55;4.90;99.90
57390;DHT22;43217;52.694;6.214;2023-11-18T06:36:21;4.90;99.90
57390;DHT22;43217;52.694;6.214;2023-11-18T06:38:48;4.90;99.90
57390;DHT22;43217;52.694;6.214;2023-11-18T06:41:19;4.90;99.90
57390;DHT22;43217;52.694;6.214;2023-11-18T06:43:48;4.90;99.90
57390;DHT22;43217;52.694;6.214;2023-11-18T06:46:19;4.90;99.90
57390;DHT22;43217;52.694;6.214;2023-11-18T06:48:50;4.90;99.90
57390;DHT22;43217;52.694;6.214;2023-11-18T06:51:23;4.90;99.90
57390;DHT22;43217;52.694;6.214;2023-11-18T06:53:56;4.90;99.90
57390;DHT22;43217;52.694;6.214;2023-11-18T06:56:26;4.90;99.90
57390;DHT22;43217;52.694;6.214;2023-11-18T06:58:53;5.00;99.90
57390;DHT22;43217;52.694;6.214;2023-11-18T07:01:18;5.00;99.90
57390;DHT22;43217;52.694;6.214;2023-11-18T07:03:45;5.00;99.90
57390;DHT22;43217;52.694;6.214;2023-11-18T07:06:17;5.00;99.90
57390;DHT22;43217;52.694;6.214;2023-11-18T07:08:48;5.00;99.90
57390;DHT22;43217;52.694;6.214;2023-11-18T07:11:15;5.00;99.90
57390;DHT22;43217;52.694;6.214;2023-11-18T07:13:40;5.00;99.90
57390;DHT22;43217;52.694;6.214;2023-11-18T07:16:10;5.10;99.90
57390;DHT22;43217;52.694;6.214;2023-11-18T07:18:36;5.10;99.90
57390;DHT22;43217;52.694;6.214;2023-11-18T07:21:05;5.10;99.90
57390;DHT22;43217;52.694;6.214;2023-11-18T07:23:31;5.10;99.90
57390;DHT22;43217;52.694;6.214;2023-11-18T07:25:57;5.10;99.90
57390;DHT22;43217;52.694;6.214;2023-11-18T07:28:23;5.20;99.90
57390;DHT22;43217;52.694;6.214;2023-11-18T07:30:54;5.20;99.90
57390;DHT22;43217;52.694;6.214;2023-11-18T07:33:20;5.20;99.90
57390;DHT22;43217;52.694;6.214;2023-11-18T07:35:47;5.20;99.90
57390;DHT22;43217;52.694;6.214;2023-11-18T07:38:17;5.30;99.90
57390;DHT22;43217;52.694;6.214;2023-11-18T07:40:45;5.30;99.90
57390;DHT22;43217;52.694;6.214;2023-11-18T07:43:15;5.30;99.90
57390;DHT22;43217;52.694;6.214;2023-11-18T07:45:41;5.30;99.90
57390;DHT22;43217;52.694;6.214;2023-11-18T07:48:09;5.40;99.90
57390;DHT22;43217;52.694;6.214;2023-11-18T07:50:36;5.40;99.90
57390;DHT22;43217;52.694;6.214;2023-11-18T07:53:02;5.40;99.90
57390;DHT22;43217;52.694;6.214;2023-11-18T07:55:29;5.50;99.90
57390;DHT22;43217;52.694;6.214;2023-11-18T07:57:55;5.50;99.90
57390;DHT22;43217;52.694;6.214;2023-11-18T08:00:21;5.50;99.90
57390;DHT22;43217;52.694;6.214;2023-11-18T08:02:47;5.50;99.90
57390;DHT22;43217;52.694;6.214;2023-11-18T08:05:14;5.50;99.90
57390;DHT22;43217;52.694;6.214;2023-11-18T08:07:41;5.50;99.90
57390;DHT22;43217;52.694;6.214;2023-11-18T08:10:07;5.50;99.90
57390;DHT22;43217;52.694;6.214;2023-11-18T08:12:39;5.50;99.90
57390;DHT22;43217;52.694;6.214;2023-11-18T08:15:06;5.50;99.90
57390;DHT22;43217;52.694;6.214;2023-11-18T08:17:32;5.60;99.90
57390;DHT22;43217;52.694;6.214;2023-11-18T08:19:59;5.60;99.90
57390;DHT22;43217;52.694;6.214;2023-11-18T08:22:25;5.60;99.90
57390;DHT22;43217;52.694;6.214;2023-11-18T08:24:50;5.60;99.90
57390;DHT22;43217;52.694;6.214;2023-11-18T08:27:17;5.70;99.90
57390;DHT22;43217;52.694;6.214;2023-11-18T08:29:43;5.70;99.90
57390;DHT22;43217;52.694;6.214;2023-11-18T08:32:08;5.70;99.90
57390;DHT22;43217;52.694;6.214;2023-11-18T08:34:35;5.80;99.90
57390;DHT22;43217;52.694;6.214;2023-11-18T08:37:05;5.80;99.90
57390;DHT22;43217;52.694;6.214;2023-11-18T08:39:31;5.80;99.90
57390;DHT22;43217;52.694;6.214;2023-11-18T08:41:58;5.80;99.90
57390;DHT22;43217;52.694;6.214;2023-11-18T08:44:23;5.70;99.90
57390;DHT22;43217;52.694;6.214;2023-11-18T08:46:50;5.70;99.90
57390;DHT22;43217;52.694;6.214;2023-11-18T08:49:20;5.70;99.90
57390;DHT22;43217;52.694;6.214;2023-11-18T08:51:49;5.70;99.90
57390;DHT22;43217;52.694;6.214;2023-11-18T08:54:21;5.70;99.90
57390;DHT22;43217;52.694;6.214;2023-11-18T08:57:03;5.70;99.90
57390;DHT22;43217;52.694;6.214;2023-11-18T08:59:29;5.70;99.90
57390;DHT22;43217;52.694;6.214;2023-11-18T09:01:56;5.70;99.90
57390;DHT22;43217;52.694;6.214;2023-11-18T09:04:25;5.70;99.90
57390;DHT22;43217;52.694;6.214;2023-11-18T09:06:51;5.70;99.90
57390;DHT22;43217;52.694;6.214;2023-11-18T09:09:23;5.70;99.90
57390;DHT22;43217;52.694;6.214;2023-11-18T09:11:54;5.80;99.90
57390;DHT22;43217;52.694;6.214;2023-11-18T09:14:22;5.80;99.90
57390;DHT22;43217;52.694;6.214;2023-11-18T09:16:50;5.80;99.90
57390;DHT22;43217;52.694;6.214;2023-11-18T09:19:16;5.80;99.90
57390;DHT22;43217;52.694;6.214;2023-11-18T09:21:43;5.80;99.90
57390;DHT22;43217;52.694;6.214;2023-11-18T09:24:09;5.80;99.90
57390;DHT22;43217;52.694;6.214;2023-11-18T09:26:38;5.80;99.90
57390;DHT22;43217;52.694;6.214;2023-11-18T09:29:05;5.80;99.90
57390;DHT22;43217;52.694;6.214;2023-11-18T09:31:34;5.90;99.90
57390;DHT22;43217;52.694;6.214;2023-11-18T09:34:01;5.90;99.90
57390;DHT22;43217;52.694;6.214;2023-11-18T09:36:32;5.90;99.90
57390;DHT22;43217;52.694;6.214;2023-11-18T09:38:59;5.90;99.90
57390;DHT22;43217;52.694;6.214;2023-11-18T09:41:25;5.90;99.90
57390;DHT22;43217;52.694;6.214;2023-11-18T09:43:53;6.00;99.90
57390;DHT22;43217;52.694;6.214;2023-11-18T09:46:25;6.00;99.90
57390;DHT22;43217;52.694;6.214;2023-11-18T09:48:53;6.00;99.90
57390;DHT22;43217;52.694;6.214;2023-11-18T09:51:23;6.00;99.90
57390;DHT22;43217;52.694;6.214;2023-11-18T09:53:53;6.00;99.90
57390;DHT22;43217;52.694;6.214;2023-11-18T09:56:29;6.00;99.90
57390;DHT22;43217;52.694;6.214;2023-11-18T09:59:11;6.00;99.90
57390;DHT22;43217;52.694;6.214;2023-11-18T10:01:52;6.00;99.90
57390;DHT22;43217;52.694;6.214;2023-11-18T10:04:20;6.00;99.90
57390;DHT22;43217;52.694;6.214;2023-11-18T10:06:46;6.00;99.90
57390;DHT22;43217;52.694;6.214;2023-11-18T10:09:12;6.00;99.90
57390;DHT22;43217;52.694;6.214;2023-11-18T10:11:47;6.00;99.90
57390;DHT22;43217;52.694;6.214;2023-11-18T10:14:14;6.10;99.90
57390;DHT22;43217;52.694;6.214;2023-11-18T10:16:44;6.00;99.90
57390;DHT22;43217;52.694;6.214;2023-11-18T10:19:13;6.00;99.90
57390;DHT22;43217;52.694;6.214;2023-11-18T10:21:40;6.00;99.90
57390;DHT22;43217;52.694;6.214;2023-11-18T10:24:07;6.00;99.90
57390;DHT22;43217;52.694;6.214;2023-11-18T10:26:55;6.00;99.90
57390;DHT22;43217;52.694;6.214;2023-11-18T10:29:24;6.00;99.90
57390;DHT22;43217;52.694;6.214;2023-11-18T10:32:03;6.10;99.90
57390;DHT22;43217;52.694;6.214;2023-11-18T10:34:34;6.00;99.90
57390;DHT22;43217;52.694;6.214;2023-11-18T10:37:01;6.10;99.90
57390;DHT22;43217;52.694;6.214;2023-11-18T10:39:29;6.10;99.90
57390;DHT22;43217;52.694;6.214;2023-11-18T10:41:59;6.10;99.90
57390;DHT22;43217;52.694;6.214;2023-11-18T10:44:26;6.10;99.90
57390;DHT22;43217;52.694;6.214;2023-11-18T10:46:52;6.10;99.90
57390;DHT22;43217;52.694;6.214;2023-11-18T10:49:19;6.10;99.90
57390;DHT22;43217;52.694;6.214;2023-11-18T10:51:46;6.10;99.90
57390;DHT22;43217;52.694;6.214;2023-11-18T10:54:13;6.10;99.90
57390;DHT22;43217;52.694;6.214;2023-11-18T10:56:52;6.10;99.90
57390;DHT22;43217;52.694;6.214;2023-11-18T10:59:22;6.10;99.90
57390;DHT22;43217;52.694;6.214;2023-11-18T11:01:48;6.00;99.90
57390;DHT22;43217;52.694;6.214;2023-11-18T11:04:15;6.10;99.90
57390;DHT22;43217;52.694;6.214;2023-11-18T11:06:48;6.10;99.90
57390;DHT22;43217;52.694;6.214;2023-11-18T11:09:25;6.10;99.90
57390;DHT22;43217;52.694;6.214;2023-11-18T11:11:58;6.10;99.90
57390;DHT22;43217;52.694;6.214;2023-11-18T11:14:37;6.10;99.90
57390;DHT22;43217;52.694;6.214;2023-11-18T11:17:07;6.10;99.90
57390;DHT22;43217;52.694;6.214;2023-11-18T11:19:59;6.10;99.90
57390;DHT22;43217;52.694;6.214;2023-11-18T11:22:38;6.10;99.90
57390;DHT22;43217;52.694;6.214;2023-11-18T11:25:22;6.10;99.90
57390;DHT22;43217;52.694;6.214;2023-11-18T11:27:59;6.10;99.90
57390;DHT22;43217;52.694;6.214;2023-11-18T11:30:40;6.10;99.90
57390;DHT22;43217;52.694;6.214;2023-11-18T11:33:28;6.10;99.90
57390;DHT22;43217;52.694;6.214;2023-11-18T11:35:56;6.10;99.90
57390;DHT22;43217;52.694;6.214;2023-11-18T11:38:25;6.10;99.90
57390;DHT22;43217;52.694;6.214;2023-11-18T11:40:54;6.10;99.90
57390;DHT22;43217;52.694;6.214;2023-11-18T11:43:20;6.10;99.90
57390;DHT22;43217;52.694;6.214;2023-11-18T11:45:54;6.10;99.90
57390;DHT22;43217;52.694;6.214;2023-11-18T11:48:22;6.10;99.90
57390;DHT22;43217;52.694;6.214;2023-11-18T11:54:06;6.00;99.90
57390;DHT22;43217;52.694;6.214;2023-11-18T11:59:14;6.00;99.90
57390;DHT22;43217;52.694;6.214;2023-11-18T12:01:41;6.00;99.90
57390;DHT22;43217;52.694;6.214;2023-11-18T12:04:14;6.00;99.90
57390;DHT22;43217;52.694;6.214;2023-11-18T12:06:47;6.00;99.90
57390;DHT22;43217;52.694;6.214;2023-11-18T12:09:16;6.00;99.90
57390;DHT22;43217;52.694;6.214;2023-11-18T12:11:45;6.00;99.90
57390;DHT22;43217;52.694;6.214;2023-11-18T12:14:14;6.00;99.90
57390;DHT22;43217;52.694;6.214;2023-11-18T12:17:03;6.00;99.90
57390;DHT22;43217;52.694;6.214;2023-11-18T12:19:39;6.00;99.90
57390;DHT22;43217;52.694;6.214;2023-11-18T12:22:17;6.00;99.90
57390;DHT22;43217;52.694;6.214;2023-11-18T12:27:45;6.10;99.90
57390;DHT22;43217;52.694;6.214;2023-11-18T12:33:00;6.10;99.90
57390;DHT22;43217;52.694;6.214;2023-11-18T12:38:54;6.10;99.90
57390;DHT22;43217;52.694;6.214;2023-11-18T12:41:35;6.10;99.90
57390;DHT22;43217;52.694;6.214;2023-11-18T12:47:00;6.10;99.90
57390;DHT22;43217;52.694;6.214;2023-11-18T12:49:40;6.10;99.90
57390;DHT22;43217;52.694;6.214;2023-11-18T12:52:08;6.10;99.90
57390;DHT22;43217;52.694;6.214;2023-11-18T12:54:35;6.10;99.90
57390;DHT22;43217;52.694;6.214;2023-11-18T12:57:09;6.10;99.90
57390;DHT22;43217;52.694;6.214;2023-11-18T12:59:36;6.10;99.90
57390;DHT22;43217;52.694;6.214;2023-11-18T13:02:06;6.20;99.90
57390;DHT22;43217;52.694;6.214;2023-11-18T13:04:32;6.20;99.90
57390;DHT22;43217;52.694;6.214;2023-11-18T13:07:00;6.20;99.90
57390;DHT22;43217;52.694;6.214;2023-11-18T13:09:26;6.20;99.90
57390;DHT22;43217;52.694;6.214;2023-11-18T13:11:59;6.20;99.90
57390;DHT22;43217;52.694;6.214;2023-11-18T13:14:26;6.20;99.90
57390;DHT22;43217;52.694;6.214;2023-11-18T13:16:54;6.30;99.90
57390;DHT22;43217;52.694;6.214;2023-11-18T13:19:26;6.20;99.90
57390;DHT22;43217;52.694;6.214;2023-11-18T13:22:00;6.30;99.90
57390;DHT22;43217;52.694;6.214;2023-11-18T13:24:29;6.30;99.90
57390;DHT22;43217;52.694;6.214;2023-11-18T13:26:55;6.30;99.90
57390;DHT22;43217;52.694;6.214;2023-11-18T13:29:25;6.30;99.90
57390;DHT22;43217;52.694;6.214;2023-11-18T13:31:51;6.40;99.90
57390;DHT22;43217;52.694;6.214;2023-11-18T13:34:18;6.30;99.90
57390;DHT22;43217;52.694;6.214;2023-11-18T13:36:44;6.40;99.90
57390;DHT22;43217;52.694;6.214;2023-11-18T13:39:19;6.40;99.90
57390;DHT22;43217;52.694;6.214;2023-11-18T13:41:50;6.40;99.90
57390;DHT22;43217;52.694;6.214;2023-11-18T13:44:35;6.50;99.90
57390;DHT22;43217;52.694;6.214;2023-11-18T13:47:06;6.50;99.90
57390;DHT22;43217;52.694;6.214;2023-11-18T13:49:32;6.50;99.90
57390;DHT22;43217;52.694;6.214;2023-11-18T13:52:00;6.50;99.90
57390;DHT22;43217;52.694;6.214;2023-11-18T13:54:28;6.50;99.90
57390;DHT22;43217;52.694;6.214;2023-11-18T13:56:55;6.50;99.90
57390;DHT22;43217;52.694;6.214;2023-11-18T13:59:25;6.50;99.90
57390;DHT22;43217;52.694;6.214;2023-11-18T14:01:55;6.50;99.90
57390;DHT22;43217;52.694;6.214;2023-11-18T14:04:31;6.60;99.90
57390;DHT22;43217;52.694;6.214;2023-11-18T14:07:03;6.60;99.90
57390;DHT22;43217;52.694;6.214;2023-11-18T14:09:33;6.60;99.90
57390;DHT22;43217;52.694;6.214;2023-11-18T14:12:06;6.60;99.90
57390;DHT22;43217;52.694;6.214;2023-11-18T14:14:32;6.60;99.90
57390;DHT22;43217;52.694;6.214;2023-11-18T14:16:58;6.60;99.90
57390;DHT22;43217;52.694;6.214;2023-11-18T14:19:30;6.60;99.90
57390;DHT22;43217;52.694;6.214;2023-11-18T14:21:56;6.60;99.90
57390;DHT22;43217;52.694;6.214;2023-11-18T14:24:22;6.70;99.90
57390;DHT22;43217;52.694;6.214;2023-11-18T14:26:49;6.70;99.90
57390;DHT22;43217;52.694;6.214;2023-11-18T14:29:16;6.70;99.90
57390;DHT22;43217;52.694;6.214;2023-11-18T14:31:41;6.70;99.90
57390;DHT22;43217;52.694;6.214;2023-11-18T14:34:07;6.70;99.90
57390;DHT22;43217;52.694;6.214;2023-11-18T14:36:38;6.70;99.90
57390;DHT22;43217;52.694;6.214;2023-11-18T14:39:04;6.70;99.90
57390;DHT22;43217;52.694;6.214;2023-11-18T14:41:30;6.70;99.90
57390;DHT22;43217;52.694;6.214;2023-11-18T14:44:00;6.70;99.90
57390;DHT22;43217;52.694;6.214;2023-11-18T14:46:27;6.70;99.90
57390;DHT22;43217;52.694;6.214;2023-11-18T14:48:53;6.70;99.90
57390;DHT22;43217;52.694;6.214;2023-11-18T14:51:19;6.70;99.90
57390;DHT22;43217;52.694;6.214;2023-11-18T14:53:44;6.70;99.90
57390;DHT22;43217;52.694;6.214;2023-11-18T14:56:10;6.70;99.90
57390;DHT22;43217;52.694;6.214;2023-11-18T14:58:36;6.70;99.90
57390;DHT22;43217;52.694;6.214;2023-11-18T15:01:02;6.70;99.90
57390;DHT22;43217;52.694;6.214;2023-11-18T15:03:28;6.70;99.90
57390;DHT22;43217;52.694;6.214;2023-11-18T15:05:54;6.70;99.90
57390;DHT22;43217;52.694;6.214;2023-11-18T15:08:20;6.70;99.90
57390;DHT22;43217;52.694;6.214;2023-11-18T15:10:45;6.80;99.90
57390;DHT22;43217;52.694;6.214;2023-11-18T15:13:11;6.80;99.90
57390;DHT22;43217;52.694;6.214;2023-11-18T15:15:46;6.80;99.90
57390;DHT22;43217;52.694;6.214;2023-11-18T15:18:16;6.80;99.90
57390;DHT22;43217;52.694;6.214;2023-11-18T15:20:45;6.80;99.90
57390;DHT22;43217;52.694;6.214;2023-11-18T15:23:12;6.80;99.90
57390;DHT22;43217;52.694;6.214;2023-11-18T15:25:38;6.80;99.90
57390;DHT22;43217;52.694;6.214;2023-11-18T15:28:05;6.80;99.90
57390;DHT22;43217;52.694;6.214;2023-11-18T15:30:39;6.80;99.90
57390;DHT22;43217;52.694;6.214;2023-11-18T15:33:06;6.80;99.90
57390;DHT22;43217;52.694;6.214;2023-11-18T15:35:35;6.80;99.90
57390;DHT22;43217;52.694;6.214;2023-11-18T15:38:11;6.90;99.90
57390;DHT22;43217;52.694;6.214;2023-11-18T15:40:42;6.90;99.90
57390;DHT22;43217;52.694;6.214;2023-11-18T15:43:08;6.90;99.90
57390;DHT22;43217;52.694;6.214;2023-11-18T15:45:37;6.90;99.90
57390;DHT22;43217;52.694;6.214;2023-11-18T15:48:03;6.90;99.90
57390;DHT22;43217;52.694;6.214;2023-11-18T15:50:35;6.90;99.90
57390;DHT22;43217;52.694;6.214;2023-11-18T15:53:03;7.00;99.90
57390;DHT22;43217;52.694;6.214;2023-11-18T15:55:32;7.00;99.90
57390;DHT22;43217;52.694;6.214;2023-11-18T15:57:58;7.00;99.90
57390;DHT22;43217;52.694;6.214;2023-11-18T16:00:25;7.00;99.90
57390;DHT22;43217;52.694;6.214;2023-11-18T16:05:19;7.00;99.90
57390;DHT22;43217;52.694;6.214;2023-11-18T16:07:47;7.00;99.90
57390;DHT22;43217;52.694;6.214;2023-11-18T16:10:14;7.00;99.90
57390;DHT22;43217;52.694;6.214;2023-11-18T16:12:53;7.00;99.90
57390;DHT22;43217;52.694;6.214;2023-11-18T16:15:20;7.00;99.90